sensor_id;sensor_type;location;lat;lon;timestamp;temperature;humidity
7325;DHT22;3703;48.016;7.802;2022-09-20T00:01:54;9.90;1.00
7325;DHT22;3703;48.016;7.802;2022-09-20T00:04:42;9.70;1.00
7325;DHT22;3703;48.016;7.802;2022-09-20T00:07:29;9.60;1.00
7325;DHT22;3703;48.016;7.802;2022-09-20T00:10:18;9.60;1.00
7325;DHT22;3703;48.016;7.802;2022-09-20T00:13:09;9.60;1.00
7325;DHT22;3703;48.016;7.802;2022-09-20T00:15:58;9.70;1.00
7325;DHT22;3703;48.016;7.802;2022-09-20T00:18:47;9.60;1.00
7325;DHT22;3703;48.016;7.802;2022-09-20T00:21:35;9.50;1.00
7325;DHT22;3703;48.016;7.802;2022-09-20T00:24:24;9.60;1.00
7325;DHT22;3703;48.016;7.802;2022-09-20T00:27:13;9.40;1.00
7325;DHT22;3703;48.016;7.802;2022-09-20T00:30:00;9.50;1.00
7325;DHT22;3703;48.016;7.802;2022-09-20T00:32:48;9.60;1.00
7325;DHT22;3703;48.016;7.802;2022-09-20T00:35:35;9.50;1.00
7325;DHT22;3703;48.016;7.802;2022-09-20T00:38:22;9.50;1.00
7325;DHT22;3703;48.016;7.802;2022-09-20T00:41:10;9.50;1.00
7325;DHT22;3703;48.016;7.802;2022-09-20T00:43:59;9.30;4.60
7325;DHT22;3703;48.016;7.802;2022-09-20T00:46:47;9.00;1.00
7325;DHT22;3703;48.016;7.802;2022-09-20T00:49:36;9.10;3.50
7325;DHT22;3703;48.016;7.802;2022-09-20T00:52:25;9.30;1.00
7325;DHT22;3703;48.016;7.802;2022-09-20T00:55:13;9.30;1.00
7325;DHT22;3703;48.016;7.802;2022-09-20T00:58:01;9.20;1.00
7325;DHT22;3703;48.016;7.802;2022-09-20T01:00:52;9.30;1.00
7325;DHT22;3703;48.016;7.802;2022-09-20T01:03:41;9.20;1.00
7325;DHT22;3703;48.016;7.802;2022-09-20T01:06:31;9.40;1.00
7325;DHT22;3703;48.016;7.802;2022-09-20T01:09:19;9.30;1.00
7325;DHT22;3703;48.016;7.802;2022-09-20T01:12:10;9.40;1.00
7325;DHT22;3703;48.016;7.802;2022-09-20T01:15:02;9.40;1.00
7325;DHT22;3703;48.016;7.802;2022-09-20T01:17:55;9.40;1.00
7325;DHT22;3703;48.016;7.802;2022-09-20T01:20:45;9.20;1.00
7325;DHT22;3703;48.016;7.802;2022-09-20T01:23:44;9.20;1.00
7325;DHT22;3703;48.016;7.802;2022-09-20T01:26:53;9.20;2.90
7325;DHT22;3703;48.016;7.802;2022-09-20T01:29:57;8.90;8.10
7325;DHT22;3703;48.016;7.802;2022-09-20T01:33:02;9.00;3.00
7325;DHT22;3703;48.016;7.802;2022-09-20T01:35:57;8.90;9.50
7325;DHT22;3703;48.016;7.802;2022-09-20T01:38:56;9.10;1.00
7325;DHT22;3703;48.016;7.802;2022-09-20T01:41:53;9.20;2.70
7325;DHT22;3703;48.016;7.802;2022-09-20T01:44:47;8.80;3.40
7325;DHT22;3703;48.016;7.802;2022-09-20T01:47:48;8.70;1.00
7325;DHT22;3703;48.016;7.802;2022-09-20T01:50:49;9.00;1.00
7325;DHT22;3703;48.016;7.802;2022-09-20T01:54:16;8.80;1.40
7325;DHT22;3703;48.016;7.802;2022-09-20T01:58:05;9.00;13.60
7325;DHT22;3703;48.016;7.802;2022-09-20T02:01:20;8.80;3.00
7325;DHT22;3703;48.016;7.802;2022-09-20T02:04:30;8.50;8.00
7325;DHT22;3703;48.016;7.802;2022-09-20T02:07:43;9.10;15.50
7325;DHT22;3703;48.016;7.802;2022-09-20T02:11:05;8.90;11.40
7325;DHT22;3703;48.016;7.802;2022-09-20T02:14:03;8.40;17.50
7325;DHT22;3703;48.016;7.802;2022-09-20T02:16:55;8.30;13.00
7325;DHT22;3703;48.016;7.802;2022-09-20T02:19:57;8.70;13.10
7325;DHT22;3703;48.016;7.802;2022-09-20T02:23:07;8.20;22.80
7325;DHT22;3703;48.016;7.802;2022-09-20T02:26:10;8.00;21.10
7325;DHT22;3703;48.016;7.802;2022-09-20T02:29:18;8.80;16.50
7325;DHT22;3703;48.016;7.802;2022-09-20T02:32:21;8.40;24.30
7325;DHT22;3703;48.016;7.802;2022-09-20T02:35:32;8.50;20.80
7325;DHT22;3703;48.016;7.802;2022-09-20T02:38:41;8.50;24.70
7325;DHT22;3703;48.016;7.802;2022-09-20T02:41:54;8.50;18.80
7325;DHT22;3703;48.016;7.802;2022-09-20T02:44:53;8.60;17.60
7325;DHT22;3703;48.016;7.802;2022-09-20T02:47:46;8.50;19.80
7325;DHT22;3703;48.016;7.802;2022-09-20T02:50:41;8.20;16.30
7325;DHT22;3703;48.016;7.802;2022-09-20T02:53:38;8.60;12.60
7325;DHT22;3703;48.016;7.802;2022-09-20T02:56:34;8.40;14.10
7325;DHT22;3703;48.016;7.802;2022-09-20T02:59:30;8.80;19.20
7325;DHT22;3703;48.016;7.802;2022-09-20T03:02:28;8.60;16.50
7325;DHT22;3703;48.016;7.802;2022-09-20T03:05:23;8.50;10.10
7325;DHT22;3703;48.016;7.802;2022-09-20T03:08:28;8.30;16.00
7325;DHT22;3703;48.016;7.802;2022-09-20T03:11:26;8.20;16.60
7325;DHT22;3703;48.016;7.802;2022-09-20T03:14:19;8.20;17.10
7325;DHT22;3703;48.016;7.802;2022-09-20T03:17:17;8.10;19.30
7325;DHT22;3703;48.016;7.802;2022-09-20T03:20:18;8.30;2.20
7325;DHT22;3703;48.016;7.802;2022-09-20T03:23:23;8.60;8.90
7325;DHT22;3703;48.016;7.802;2022-09-20T03:26:31;8.20;16.30
7325;DHT22;3703;48.016;7.802;2022-09-20T03:29:37;8.20;17.50
7325;DHT22;3703;48.016;7.802;2022-09-20T03:32:45;8.40;18.50
7325;DHT22;3703;48.016;7.802;2022-09-20T03:35:54;8.30;7.70
7325;DHT22;3703;48.016;7.802;2022-09-20T03:39:03;8.10;15.40
7325;DHT22;3703;48.016;7.802;2022-09-20T03:42:12;8.00;11.90
7325;DHT22;3703;48.016;7.802;2022-09-20T03:45:28;8.10;13.30
7325;DHT22;3703;48.016;7.802;2022-09-20T03:48:55;8.00;24.60
7325;DHT22;3703;48.016;7.802;2022-09-20T03:51:57;8.20;10.40
7325;DHT22;3703;48.016;7.802;2022-09-20T03:55:25;8.00;18.70
7325;DHT22;3703;48.016;7.802;2022-09-20T03:58:48;8.10;7.70
7325;DHT22;3703;48.016;7.802;2022-09-20T04:02:00;7.90;22.20
7325;DHT22;3703;48.016;7.802;2022-09-20T04:05:01;7.10;18.60
7325;DHT22;3703;48.016;7.802;2022-09-20T04:08:02;7.90;16.50
7325;DHT22;3703;48.016;7.802;2022-09-20T04:11:03;8.00;8.30
7325;DHT22;3703;48.016;7.802;2022-09-20T04:13:58;7.90;20.90
7325;DHT22;3703;48.016;7.802;2022-09-20T04:16:57;8.00;15.10
7325;DHT22;3703;48.016;7.802;2022-09-20T04:19:51;8.00;13.30
7325;DHT22;3703;48.016;7.802;2022-09-20T04:22:49;7.90;12.30
7325;DHT22;3703;48.016;7.802;2022-09-20T04:25:41;7.90;18.50
7325;DHT22;3703;48.016;7.802;2022-09-20T04:28:36;8.00;16.90
7325;DHT22;3703;48.016;7.802;2022-09-20T04:31:34;7.80;19.60
7325;DHT22;3703;48.016;7.802;2022-09-20T04:34:29;7.70;21.30
7325;DHT22;3703;48.016;7.802;2022-09-20T04:37:35;7.70;25.60
7325;DHT22;3703;48.016;7.802;2022-09-20T04:40:30;7.70;24.50
7325;DHT22;3703;48.016;7.802;2022-09-20T04:47:18;7.80;18.90
7325;DHT22;3703;48.016;7.802;2022-09-20T04:51:02;7.80;18.90
7325;DHT22;3703;48.016;7.802;2022-09-20T04:58:09;7.70;21.60
7325;DHT22;3703;48.016;7.802;2022-09-20T05:05:34;7.70;17.10
7325;DHT22;3703;48.016;7.802;2022-09-20T05:08:55;7.80;17.70
7325;DHT22;3703;48.016;7.802;2022-09-20T05:12:18;7.80;15.80
7325;DHT22;3703;48.016;7.802;2022-09-20T05:15:38;7.80;11.30
7325;DHT22;3703;48.016;7.802;2022-09-20T05:22:18;7.60;22.10
7325;DHT22;3703;48.016;7.802;2022-09-20T05:25:41;7.60;21.50
7325;DHT22;3703;48.016;7.802;2022-09-20T05:28:46;7.60;23.50
7325;DHT22;3703;48.016;7.802;2022-09-20T05:31:42;7.70;18.80
7325;DHT22;3703;48.016;7.802;2022-09-20T05:34:43;7.70;21.80
7325;DHT22;3703;48.016;7.802;2022-09-20T05:37:45;7.70;22.70
7325;DHT22;3703;48.016;7.802;2022-09-20T05:40:52;7.70;21.60
7325;DHT22;3703;48.016;7.802;2022-09-20T05:44:00;7.80;20.50
7325;DHT22;3703;48.016;7.802;2022-09-20T05:46:58;8.00;33.90
7325;DHT22;3703;48.016;7.802;2022-09-20T05:49:54;7.70;17.50
7325;DHT22;3703;48.016;7.802;2022-09-20T05:52:54;7.70;22.10
7325;DHT22;3703;48.016;7.802;2022-09-20T05:55:53;7.70;27.90
7325;DHT22;3703;48.016;7.802;2022-09-20T05:59:00;7.90;22.60
7325;DHT22;3703;48.016;7.802;2022-09-20T06:05:12;8.00;20.90
7325;DHT22;3703;48.016;7.802;2022-09-20T06:12:04;9.30;32.50
7325;DHT22;3703;48.016;7.802;2022-09-20T06:15:15;8.10;31.60
7325;DHT22;3703;48.016;7.802;2022-09-20T06:18:19;8.10;34.50
7325;DHT22;3703;48.016;7.802;2022-09-20T06:21:17;8.20;33.60
7325;DHT22;3703;48.016;7.802;2022-09-20T06:24:23;8.30;23.20
7325;DHT22;3703;48.016;7.802;2022-09-20T06:27:20;8.30;36.10
7325;DHT22;3703;48.016;7.802;2022-09-20T06:30:15;8.20;29.90
7325;DHT22;3703;48.016;7.802;2022-09-20T06:33:13;8.50;32.70
7325;DHT22;3703;48.016;7.802;2022-09-20T06:36:07;8.50;40.90
7325;DHT22;3703;48.016;7.802;2022-09-20T06:39:26;8.80;44.20
7325;DHT22;3703;48.016;7.802;2022-09-20T06:42:34;9.20;47.40
7325;DHT22;3703;48.016;7.802;2022-09-20T06:45:22;8.90;30.80
7325;DHT22;3703;48.016;7.802;2022-09-20T06:48:10;8.80;34.50
7325;DHT22;3703;48.016;7.802;2022-09-20T06:51:00;8.40;26.30
7325;DHT22;3703;48.016;7.802;2022-09-20T06:53:48;9.00;24.60
7325;DHT22;3703;48.016;7.802;2022-09-20T06:56:37;9.10;16.70
7325;DHT22;3703;48.016;7.802;2022-09-20T06:59:25;9.20;18.90
7325;DHT22;3703;48.016;7.802;2022-09-20T07:02:12;9.10;17.70
7325;DHT22;3703;48.016;7.802;2022-09-20T07:05:00;9.30;8.30
7325;DHT22;3703;48.016;7.802;2022-09-20T07:07:48;10.10;1.00
7325;DHT22;3703;48.016;7.802;2022-09-20T07:10:35;9.90;1.00
7325;DHT22;3703;48.016;7.802;2022-09-20T07:13:25;10.00;1.00
7325;DHT22;3703;48.016;7.802;2022-09-20T07:16:13;10.10;1.00
7325;DHT22;3703;48.016;7.802;2022-09-20T07:19:01;10.30;1.00
7325;DHT22;3703;48.016;7.802;2022-09-20T07:21:50;10.40;1.00
7325;DHT22;3703;48.016;7.802;2022-09-20T07:24:38;10.50;1.00
7325;DHT22;3703;48.016;7.802;2022-09-20T07:27:27;10.70;1.00
7325;DHT22;3703;48.016;7.802;2022-09-20T07:30:17;10.70;1.00
7325;DHT22;3703;48.016;7.802;2022-09-20T07:33:06;10.70;1.00
7325;DHT22;3703;48.016;7.802;2022-09-20T07:35:55;10.70;1.00
7325;DHT22;3703;48.016;7.802;2022-09-20T07:38:46;10.80;1.00
7325;DHT22;3703;48.016;7.802;2022-09-20T07:41:34;10.90;1.00
7325;DHT22;3703;48.016;7.802;2022-09-20T07:44:21;11.00;1.00
7325;DHT22;3703;48.016;7.802;2022-09-20T07:47:11;11.20;1.00
7325;DHT22;3703;48.016;7.802;2022-09-20T07:50:01;11.30;1.00
7325;DHT22;3703;48.016;7.802;2022-09-20T07:52:48;11.30;1.00
7325;DHT22;3703;48.016;7.802;2022-09-20T07:55:37;11.60;1.00
7325;DHT22;3703;48.016;7.802;2022-09-20T07:58:25;11.80;1.00
7325;DHT22;3703;48.016;7.802;2022-09-20T08:01:13;11.90;1.00
7325;DHT22;3703;48.016;7.802;2022-09-20T08:04:03;12.00;1.00
7325;DHT22;3703;48.016;7.802;2022-09-20T08:06:51;12.20;1.00
7325;DHT22;3703;48.016;7.802;2022-09-20T08:09:39;12.50;1.00
7325;DHT22;3703;48.016;7.802;2022-09-20T08:12:26;12.70;1.00
7325;DHT22;3703;48.016;7.802;2022-09-20T08:15:14;12.80;1.00
7325;DHT22;3703;48.016;7.802;2022-09-20T08:18:02;12.90;1.00
7325;DHT22;3703;48.016;7.802;2022-09-20T08:20:51;13.10;1.00
7325;DHT22;3703;48.016;7.802;2022-09-20T08:23:41;13.30;1.00
7325;DHT22;3703;48.016;7.802;2022-09-20T08:26:30;13.40;1.00
7325;DHT22;3703;48.016;7.802;2022-09-20T08:29:20;13.50;1.00
7325;DHT22;3703;48.016;7.802;2022-09-20T08:32:07;13.40;1.00
7325;DHT22;3703;48.016;7.802;2022-09-20T08:34:55;13.80;1.00
7325;DHT22;3703;48.016;7.802;2022-09-20T08:37:44;13.90;1.00
7325;DHT22;3703;48.016;7.802;2022-09-20T08:40:32;14.10;1.00
7325;DHT22;3703;48.016;7.802;2022-09-20T08:43:21;14.40;1.00
7325;DHT22;3703;48.016;7.802;2022-09-20T08:46:16;14.60;1.00
7325;DHT22;3703;48.016;7.802;2022-09-20T08:49:06;14.60;1.00
7325;DHT22;3703;48.016;7.802;2022-09-20T08:51:55;14.60;1.00
7325;DHT22;3703;48.016;7.802;2022-09-20T08:54:45;14.80;1.00
7325;DHT22;3703;48.016;7.802;2022-09-20T08:57:33;14.30;1.00
7325;DHT22;3703;48.016;7.802;2022-09-20T09:00:23;15.00;1.00
7325;DHT22;3703;48.016;7.802;2022-09-20T09:03:13;15.40;1.00
7325;DHT22;3703;48.016;7.802;2022-09-20T09:06:03;15.60;1.00
7325;DHT22;3703;48.016;7.802;2022-09-20T09:08:51;15.90;1.00
7325;DHT22;3703;48.016;7.802;2022-09-20T09:11:43;16.00;1.00
7325;DHT22;3703;48.016;7.802;2022-09-20T09:14:32;15.50;1.00
7325;DHT22;3703;48.016;7.802;2022-09-20T09:17:39;15.70;1.00
7325;DHT22;3703;48.016;7.802;2022-09-20T09:20:27;16.90;1.00
7325;DHT22;3703;48.016;7.802;2022-09-20T09:23:22;16.50;1.00
7325;DHT22;3703;48.016;7.802;2022-09-20T09:26:18;16.70;99.90
7325;DHT22;3703;48.016;7.802;2022-09-20T09:29:15;16.90;99.90
7325;DHT22;3703;48.016;7.802;2022-09-20T09:32:22;17.20;99.90
7325;DHT22;3703;48.016;7.802;2022-09-20T09:35:23;17.60;99.90
7325;DHT22;3703;48.016;7.802;2022-09-20T09:38:17;17.80;99.90
7325;DHT22;3703;48.016;7.802;2022-09-20T09:41:20;18.10;99.90
7325;DHT22;3703;48.016;7.802;2022-09-20T09:44:20;18.40;99.90
7325;DHT22;3703;48.016;7.802;2022-09-20T09:47:22;18.80;99.90
7325;DHT22;3703;48.016;7.802;2022-09-20T09:50:21;19.20;1.00
7325;DHT22;3703;48.016;7.802;2022-09-20T09:53:12;19.40;1.00
7325;DHT22;3703;48.016;7.802;2022-09-20T09:56:13;19.70;99.90
7325;DHT22;3703;48.016;7.802;2022-09-20T09:59:26;20.60;1.00
7325;DHT22;3703;48.016;7.802;2022-09-20T10:02:33;20.10;78.40
7325;DHT22;3703;48.016;7.802;2022-09-20T10:05:43;20.00;99.90
7325;DHT22;3703;48.016;7.802;2022-09-20T10:08:46;20.30;99.90
7325;DHT22;3703;48.016;7.802;2022-09-20T10:11:58;20.60;1.00
7325;DHT22;3703;48.016;7.802;2022-09-20T10:15:09;20.50;99.90
7325;DHT22;3703;48.016;7.802;2022-09-20T10:18:20;20.70;99.90
7325;DHT22;3703;48.016;7.802;2022-09-20T10:21:28;21.10;1.00
7325;DHT22;3703;48.016;7.802;2022-09-20T10:24:31;20.60;99.90
7325;DHT22;3703;48.016;7.802;2022-09-20T10:27:35;21.00;99.90
7325;DHT22;3703;48.016;7.802;2022-09-20T10:30:38;21.40;99.90
7325;DHT22;3703;48.016;7.802;2022-09-20T10:33:37;21.90;1.00
7325;DHT22;3703;48.016;7.802;2022-09-20T10:36:35;22.30;1.00
7325;DHT22;3703;48.016;7.802;2022-09-20T10:39:30;22.40;1.00
7325;DHT22;3703;48.016;7.802;2022-09-20T10:42:28;22.20;99.90
7325;DHT22;3703;48.016;7.802;2022-09-20T10:45:44;22.10;99.90
7325;DHT22;3703;48.016;7.802;2022-09-20T10:48:40;21.50;99.90
7325;DHT22;3703;48.016;7.802;2022-09-20T10:51:42;21.50;1.00
7325;DHT22;3703;48.016;7.802;2022-09-20T10:54:47;21.30;1.00
7325;DHT22;3703;48.016;7.802;2022-09-20T10:58:10;22.20;1.00
7325;DHT22;3703;48.016;7.802;2022-09-20T11:01:46;23.00;99.90
7325;DHT22;3703;48.016;7.802;2022-09-20T11:05:15;23.40;74.70
7325;DHT22;3703;48.016;7.802;2022-09-20T11:08:12;23.60;1.00
7325;DHT22;3703;48.016;7.802;2022-09-20T11:11:08;23.90;1.00
7325;DHT22;3703;48.016;7.802;2022-09-20T11:14:02;24.10;1.00
7325;DHT22;3703;48.016;7.802;2022-09-20T11:16:55;24.50;1.00
7325;DHT22;3703;48.016;7.802;2022-09-20T11:19:52;24.50;99.90
7325;DHT22;3703;48.016;7.802;2022-09-20T11:22:48;24.80;99.90
7325;DHT22;3703;48.016;7.802;2022-09-20T11:25:41;24.90;99.90
7325;DHT22;3703;48.016;7.802;2022-09-20T11:28:35;25.00;99.90
7325;DHT22;3703;48.016;7.802;2022-09-20T11:31:27;25.10;92.70
7325;DHT22;3703;48.016;7.802;2022-09-20T11:34:22;25.40;64.90
7325;DHT22;3703;48.016;7.802;2022-09-20T11:37:14;25.30;1.00
7325;DHT22;3703;48.016;7.802;2022-09-20T11:40:10;25.40;1.00
7325;DHT22;3703;48.016;7.802;2022-09-20T11:43:03;25.70;1.00
7325;DHT22;3703;48.016;7.802;2022-09-20T11:45:55;25.90;1.00
7325;DHT22;3703;48.016;7.802;2022-09-20T11:48:47;25.80;1.00
7325;DHT22;3703;48.016;7.802;2022-09-20T11:52:06;26.00;1.00
7325;DHT22;3703;48.016;7.802;2022-09-20T11:58:16;26.40;1.00
7325;DHT22;3703;48.016;7.802;2022-09-20T12:01:11;26.40;1.00
7325;DHT22;3703;48.016;7.802;2022-09-20T12:04:02;25.80;99.90
7325;DHT22;3703;48.016;7.802;2022-09-20T12:06:59;25.80;99.90
7325;DHT22;3703;48.016;7.802;2022-09-20T12:09:54;26.00;99.90
7325;DHT22;3703;48.016;7.802;2022-09-20T12:12:45;26.40;99.90
7325;DHT22;3703;48.016;7.802;2022-09-20T12:15:38;26.60;99.90
7325;DHT22;3703;48.016;7.802;2022-09-20T12:18:44;26.70;99.90
7325;DHT22;3703;48.016;7.802;2022-09-20T12:25:35;26.70;99.90
7325;DHT22;3703;48.016;7.802;2022-09-20T12:28:32;26.60;99.90
7325;DHT22;3703;48.016;7.802;2022-09-20T12:31:46;25.70;99.90
7325;DHT22;3703;48.016;7.802;2022-09-20T12:34:35;24.70;99.90
7325;DHT22;3703;48.016;7.802;2022-09-20T12:37:25;24.30;99.90
7325;DHT22;3703;48.016;7.802;2022-09-20T12:40:14;24.10;99.90
7325;DHT22;3703;48.016;7.802;2022-09-20T12:43:13;24.50;99.90
7325;DHT22;3703;48.016;7.802;2022-09-20T12:46:02;25.00;99.90
7325;DHT22;3703;48.016;7.802;2022-09-20T12:48:58;25.20;99.90
7325;DHT22;3703;48.016;7.802;2022-09-20T12:51:56;25.60;99.90
7325;DHT22;3703;48.016;7.802;2022-09-20T12:55:01;26.00;99.90
7325;DHT22;3703;48.016;7.802;2022-09-20T12:57:52;25.50;99.90
7325;DHT22;3703;48.016;7.802;2022-09-20T13:00:44;25.90;99.90
7325;DHT22;3703;48.016;7.802;2022-09-20T13:03:34;26.10;99.90
7325;DHT22;3703;48.016;7.802;2022-09-20T13:06:25;26.50;99.90
7325;DHT22;3703;48.016;7.802;2022-09-20T13:09:14;26.60;99.90
7325;DHT22;3703;48.016;7.802;2022-09-20T13:12:02;26.10;99.90
7325;DHT22;3703;48.016;7.802;2022-09-20T13:14:51;25.60;99.90
7325;DHT22;3703;48.016;7.802;2022-09-20T13:17:43;24.90;99.90
7325;DHT22;3703;48.016;7.802;2022-09-20T13:20:32;24.30;99.90
7325;DHT22;3703;48.016;7.802;2022-09-20T13:23:24;23.90;99.90
7325;DHT22;3703;48.016;7.802;2022-09-20T13:26:14;23.40;99.90
7325;DHT22;3703;48.016;7.802;2022-09-20T13:29:07;23.20;99.90
7325;DHT22;3703;48.016;7.802;2022-09-20T13:31:55;23.80;99.90
7325;DHT22;3703;48.016;7.802;2022-09-20T13:34:44;24.40;99.90
7325;DHT22;3703;48.016;7.802;2022-09-20T13:37:33;24.90;99.90
7325;DHT22;3703;48.016;7.802;2022-09-20T13:40:22;25.20;99.90
7325;DHT22;3703;48.016;7.802;2022-09-20T13:43:25;25.20;99.90
7325;DHT22;3703;48.016;7.802;2022-09-20T13:46:15;25.50;99.90
7325;DHT22;3703;48.016;7.802;2022-09-20T13:49:14;25.30;99.90
7325;DHT22;3703;48.016;7.802;2022-09-20T13:52:21;25.50;99.90
7325;DHT22;3703;48.016;7.802;2022-09-20T13:55:23;25.60;99.90
7325;DHT22;3703;48.016;7.802;2022-09-20T13:58:18;25.70;99.90
7325;DHT22;3703;48.016;7.802;2022-09-20T14:01:25;25.70;99.90
7325;DHT22;3703;48.016;7.802;2022-09-20T14:04:16;25.70;99.90
7325;DHT22;3703;48.016;7.802;2022-09-20T14:07:06;25.70;99.90
7325;DHT22;3703;48.016;7.802;2022-09-20T14:09:56;25.40;99.90
7325;DHT22;3703;48.016;7.802;2022-09-20T14:12:45;25.40;99.90
7325;DHT22;3703;48.016;7.802;2022-09-20T14:15:36;25.00;99.90
7325;DHT22;3703;48.016;7.802;2022-09-20T14:18:25;25.00;99.90
7325;DHT22;3703;48.016;7.802;2022-09-20T14:21:16;24.70;99.90
7325;DHT22;3703;48.016;7.802;2022-09-20T14:24:22;24.60;99.90
7325;DHT22;3703;48.016;7.802;2022-09-20T14:27:17;24.20;99.90
7325;DHT22;3703;48.016;7.802;2022-09-20T14:33:18;24.00;99.90
7325;DHT22;3703;48.016;7.802;2022-09-20T14:36:12;23.90;99.90
7325;DHT22;3703;48.016;7.802;2022-09-20T14:39:03;23.80;99.90
7325;DHT22;3703;48.016;7.802;2022-09-20T14:41:51;23.70;99.90
7325;DHT22;3703;48.016;7.802;2022-09-20T14:44:40;23.60;99.90
7325;DHT22;3703;48.016;7.802;2022-09-20T14:47:35;23.50;99.90
7325;DHT22;3703;48.016;7.802;2022-09-20T14:50:27;23.20;99.90
7325;DHT22;3703;48.016;7.802;2022-09-20T14:53:25;23.40;99.90
7325;DHT22;3703;48.016;7.802;2022-09-20T14:56:15;23.50;99.90
7325;DHT22;3703;48.016;7.802;2022-09-20T14:59:17;22.80;99.90
7325;DHT22;3703;48.016;7.802;2022-09-20T15:02:12;23.20;99.90
7325;DHT22;3703;48.016;7.802;2022-09-20T15:05:01;23.20;99.90
7325;DHT22;3703;48.016;7.802;2022-09-20T15:07:49;23.00;99.90
7325;DHT22;3703;48.016;7.802;2022-09-20T15:10:37;23.00;99.90
7325;DHT22;3703;48.016;7.802;2022-09-20T15:13:24;22.70;99.90
7325;DHT22;3703;48.016;7.802;2022-09-20T15:16:14;22.70;99.90
7325;DHT22;3703;48.016;7.802;2022-09-20T15:19:07;22.70;99.90
7325;DHT22;3703;48.016;7.802;2022-09-20T15:21:55;22.60;99.90
7325;DHT22;3703;48.016;7.802;2022-09-20T15:24:43;22.50;99.90
7325;DHT22;3703;48.016;7.802;2022-09-20T15:27:31;22.40;99.90
7325;DHT22;3703;48.016;7.802;2022-09-20T15:30:19;22.30;99.90
7325;DHT22;3703;48.016;7.802;2022-09-20T15:33:08;22.30;99.90
7325;DHT22;3703;48.016;7.802;2022-09-20T15:35:58;22.10;99.90
7325;DHT22;3703;48.016;7.802;2022-09-20T15:38:47;21.90;99.90
7325;DHT22;3703;48.016;7.802;2022-09-20T15:41:35;21.80;99.90
7325;DHT22;3703;48.016;7.802;2022-09-20T15:44:23;21.80;99.90
7325;DHT22;3703;48.016;7.802;2022-09-20T15:47:11;21.80;99.90
7325;DHT22;3703;48.016;7.802;2022-09-20T15:49:59;21.70;99.90
7325;DHT22;3703;48.016;7.802;2022-09-20T15:52:48;21.40;99.90
7325;DHT22;3703;48.016;7.802;2022-09-20T15:55:37;21.30;99.90
7325;DHT22;3703;48.016;7.802;2022-09-20T15:58:25;21.00;99.90
7325;DHT22;3703;48.016;7.802;2022-09-20T16:01:12;20.80;99.90
7325;DHT22;3703;48.016;7.802;2022-09-20T16:04:04;20.60;99.90
7325;DHT22;3703;48.016;7.802;2022-09-20T16:06:53;20.30;99.90
7325;DHT22;3703;48.016;7.802;2022-09-20T16:09:42;20.20;99.90
7325;DHT22;3703;48.016;7.802;2022-09-20T16:12:29;20.10;99.90
7325;DHT22;3703;48.016;7.802;2022-09-20T16:15:17;20.10;1.00
7325;DHT22;3703;48.016;7.802;2022-09-20T16:18:05;19.90;1.00
7325;DHT22;3703;48.016;7.802;2022-09-20T16:21:12;19.60;1.00
7325;DHT22;3703;48.016;7.802;2022-09-20T16:24:01;19.30;1.00
7325;DHT22;3703;48.016;7.802;2022-09-20T16:26:52;19.40;1.00
7325;DHT22;3703;48.016;7.802;2022-09-20T16:29:39;19.30;1.00
7325;DHT22;3703;48.016;7.802;2022-09-20T16:32:27;19.30;1.00
7325;DHT22;3703;48.016;7.802;2022-09-20T16:35:15;19.20;1.00
7325;DHT22;3703;48.016;7.802;2022-09-20T16:38:02;19.10;1.00
7325;DHT22;3703;48.016;7.802;2022-09-20T16:40:50;19.00;1.00
7325;DHT22;3703;48.016;7.802;2022-09-20T16:43:40;18.50;1.00
7325;DHT22;3703;48.016;7.802;2022-09-20T16:46:29;18.60;1.00
7325;DHT22;3703;48.016;7.802;2022-09-20T16:49:21;18.70;1.00
7325;DHT22;3703;48.016;7.802;2022-09-20T16:52:11;18.60;1.00
7325;DHT22;3703;48.016;7.802;2022-09-20T16:54:59;18.60;1.00
7325;DHT22;3703;48.016;7.802;2022-09-20T16:57:50;18.60;1.00
7325;DHT22;3703;48.016;7.802;2022-09-20T17:00:39;18.60;1.00
7325;DHT22;3703;48.016;7.802;2022-09-20T17:03:27;18.50;1.00
7325;DHT22;3703;48.016;7.802;2022-09-20T17:06:15;18.30;1.00
7325;DHT22;3703;48.016;7.802;2022-09-20T17:09:05;18.10;26.60
7325;DHT22;3703;48.016;7.802;2022-09-20T17:11:53;17.90;99.90
7325;DHT22;3703;48.016;7.802;2022-09-20T17:14:40;17.60;99.90
7325;DHT22;3703;48.016;7.802;2022-09-20T17:17:29;17.50;99.90
7325;DHT22;3703;48.016;7.802;2022-09-20T17:20:18;17.40;99.90
7325;DHT22;3703;48.016;7.802;2022-09-20T17:23:08;17.30;1.00
7325;DHT22;3703;48.016;7.802;2022-09-20T17:26:01;17.00;1.00
7325;DHT22;3703;48.016;7.802;2022-09-20T17:28:52;17.00;1.00
7325;DHT22;3703;48.016;7.802;2022-09-20T17:31:44;17.00;41.00
7325;DHT22;3703;48.016;7.802;2022-09-20T17:34:34;16.80;99.90
7325;DHT22;3703;48.016;7.802;2022-09-20T17:37:22;16.80;99.90
7325;DHT22;3703;48.016;7.802;2022-09-20T17:40:10;16.70;99.90
7325;DHT22;3703;48.016;7.802;2022-09-20T17:42:57;16.70;1.00
7325;DHT22;3703;48.016;7.802;2022-09-20T17:45:45;16.70;1.00
7325;DHT22;3703;48.016;7.802;2022-09-20T17:48:33;16.60;1.00
7325;DHT22;3703;48.016;7.802;2022-09-20T17:51:24;16.60;1.00
7325;DHT22;3703;48.016;7.802;2022-09-20T17:54:13;16.60;99.90
7325;DHT22;3703;48.016;7.802;2022-09-20T17:57:01;16.50;99.90
7325;DHT22;3703;48.016;7.802;2022-09-20T17:59:50;16.50;99.90
7325;DHT22;3703;48.016;7.802;2022-09-20T18:02:38;16.40;99.90
7325;DHT22;3703;48.016;7.802;2022-09-20T18:05:26;16.40;1.00
7325;DHT22;3703;48.016;7.802;2022-09-20T18:08:15;16.40;1.00
7325;DHT22;3703;48.016;7.802;2022-09-20T18:11:04;16.30;1.00
7325;DHT22;3703;48.016;7.802;2022-09-20T18:13:53;16.30;1.00
7325;DHT22;3703;48.016;7.802;2022-09-20T18:16:41;16.20;1.00
7325;DHT22;3703;48.016;7.802;2022-09-20T18:19:29;16.20;1.00
7325;DHT22;3703;48.016;7.802;2022-09-20T18:22:19;16.20;1.00
7325;DHT22;3703;48.016;7.802;2022-09-20T18:25:08;16.10;23.20
7325;DHT22;3703;48.016;7.802;2022-09-20T18:27:56;15.70;99.90
7325;DHT22;3703;48.016;7.802;2022-09-20T18:30:44;15.90;99.90
7325;DHT22;3703;48.016;7.802;2022-09-20T18:33:31;15.90;1.00
7325;DHT22;3703;48.016;7.802;2022-09-20T18:36:19;15.90;99.90
7325;DHT22;3703;48.016;7.802;2022-09-20T18:39:10;15.90;1.00
7325;DHT22;3703;48.016;7.802;2022-09-20T18:42:00;15.80;1.00
7325;DHT22;3703;48.016;7.802;2022-09-20T18:44:49;15.80;99.90
7325;DHT22;3703;48.016;7.802;2022-09-20T18:47:37;15.90;99.90
7325;DHT22;3703;48.016;7.802;2022-09-20T18:50:27;15.80;99.90
7325;DHT22;3703;48.016;7.802;2022-09-20T18:53:15;15.80;1.00
7325;DHT22;3703;48.016;7.802;2022-09-20T18:56:07;15.80;86.10
7325;DHT22;3703;48.016;7.802;2022-09-20T18:58:59;15.70;1.00
7325;DHT22;3703;48.016;7.802;2022-09-20T19:05:26;15.70;99.90
7325;DHT22;3703;48.016;7.802;2022-09-20T19:08:23;15.70;1.00
7325;DHT22;3703;48.016;7.802;2022-09-20T19:11:22;15.70;99.90
7325;DHT22;3703;48.016;7.802;2022-09-20T19:14:19;15.70;1.00
7325;DHT22;3703;48.016;7.802;2022-09-20T19:17:20;15.70;99.90
7325;DHT22;3703;48.016;7.802;2022-09-20T19:20:21;15.60;1.00
7325;DHT22;3703;48.016;7.802;2022-09-20T19:23:28;15.50;99.90
7325;DHT22;3703;48.016;7.802;2022-09-20T19:26:25;15.40;9.00
7325;DHT22;3703;48.016;7.802;2022-09-20T19:29:17;15.40;1.00
7325;DHT22;3703;48.016;7.802;2022-09-20T19:32:12;15.40;1.00
7325;DHT22;3703;48.016;7.802;2022-09-20T19:35:04;15.40;1.00
7325;DHT22;3703;48.016;7.802;2022-09-20T19:38:02;15.40;99.90
7325;DHT22;3703;48.016;7.802;2022-09-20T19:40:56;15.20;1.00
7325;DHT22;3703;48.016;7.802;2022-09-20T19:44:01;15.30;1.00
7325;DHT22;3703;48.016;7.802;2022-09-20T19:47:06;15.30;1.00
7325;DHT22;3703;48.016;7.802;2022-09-20T19:50:06;15.30;1.00
7325;DHT22;3703;48.016;7.802;2022-09-20T19:52:58;15.30;1.00
7325;DHT22;3703;48.016;7.802;2022-09-20T19:55:51;15.30;1.00
7325;DHT22;3703;48.016;7.802;2022-09-20T19:58:41;15.30;1.00